createdAt,value
2022-10-21T00:04:15.002Z,3.00
2022-10-21T00:05:32.964Z,2.25
2022-10-21T00:08:10.304Z,3.00
2022-10-21T00:13:17.826Z,3.00
2022-10-21T00:14:30.358Z,2.50
2022-10-21T00:19:47.717Z,3.00
2022-10-21T00:21:07.241Z,3.50
2022-10-21T00:24:58.263Z,4.00
2022-10-21T00:26:02.880Z,3.00
2022-10-21T00:27:15.932Z,3.25
2022-10-21T00:28:21.811Z,3.00
2022-10-21T00:29:26.853Z,2.50
2022-10-21T00:30:42.945Z,1.50
2022-10-21T00:31:46.414Z,2.00
2022-10-21T00:32:50.518Z,3.25
2022-10-21T00:33:55.343Z,2.75
2022-10-21T00:35:12.135Z,3.50
2022-10-21T00:37:42.801Z,2.50
2022-10-21T00:54:57.595Z,3.00
2022-10-21T00:57:21.420Z,3.50
2022-10-21T01:10:34.918Z,3.00
2022-10-21T01:11:39.340Z,4.00
2022-10-21T01:15:29.132Z,3.25
2022-10-21T01:16:34.349Z,3.50
2022-10-21T01:17:45.293Z,3.00
2022-10-21T01:18:56.659Z,3.50
2022-10-21T01:20:17.952Z,2.25
2022-10-21T01:25:30.204Z,3.50
2022-10-21T01:39:53.890Z,3.00
2022-10-21T01:41:01.571Z,2.25
2022-10-21T01:42:11.337Z,4.00
2022-10-21T01:44:52.194Z,2.00
2022-10-21T01:46:06.061Z,3.50
2022-10-21T01:48:39.934Z,3.00
2022-10-21T01:50:15.266Z,3.75
2022-10-21T01:52:21.121Z,2.50
2022-10-21T01:53:31.183Z,3.50
2022-10-21T01:54:37.931Z,3.00
2022-10-21T01:55:45.814Z,2.50
2022-10-21T01:59:37.960Z,3.00
2022-10-21T02:03:24.399Z,3.00
2022-10-21T02:06:04.547Z,2.50
2022-10-21T02:15:19.473Z,3.50
2022-10-21T23:31:40.705Z,0.00
2022-10-21T23:32:49.935Z,0.50
2022-10-21T23:33:54.144Z,0.00
2022-10-21T23:34:58.333Z,0.00
2022-10-21T23:36:02.427Z,0.50
2022-10-21T23:37:06.199Z,0.50
2022-10-21T23:38:09.509Z,1.00
2022-10-21T23:40:33.702Z,0.00
2022-10-21T23:41:37.413Z,0.00
2022-10-21T23:42:42.932Z,0.00
2022-10-21T23:43:47.342Z,0.00
2022-10-21T23:44:51.337Z,0.00
2022-10-21T23:45:54.720Z,0.00
2022-10-21T23:47:00.363Z,0.00
2022-10-21T23:48:04.463Z,0.50
2022-10-21T23:49:08.055Z,0.75
2022-10-21T23:50:11.785Z,0.50
2022-10-21T23:51:19.120Z,0.25
2022-10-21T23:52:22.929Z,0.00
2022-10-21T23:53:28.433Z,0.75
2022-10-21T23:54:31.574Z,0.25
2022-10-21T23:55:35.242Z,0.00
2022-10-21T23:56:42.432Z,0.00
2022-10-21T23:57:46.314Z,0.50
2022-10-21T23:58:52.568Z,0.75
